Time;durP1;ratioP1;P1;durP2;ratioP2;P2;SDS_P1;SDS_P2;PMS_P1;PMS_P2;Temp;Humidity;BMP_temperature;BMP_pressure;BME280_temperature;BME280_humidity;BME280_pressure;Samples;Min_cycle;Max_cycle;Signal;HPM_P1;HPM_P2
2023/10/01 00:02:05;;;;;;;15.05;12.85;;;;;;;13.75;84.70;102270.69;5099234;28;20051;-63
2023/10/01 00:04:31;;;;;;;13.38;12.07;;;;;;;13.66;84.86;102288.09;5099752;28;20024;-63
2023/10/01 00:06:58;;;;;;;14.68;11.65;;;;;;;13.66;85.70;102287.25;5100908;28;20031;-63
2023/10/01 00:09:24;;;;;;;15.80;11.68;;;;;;;13.75;84.96;102290.28;5102387;28;20028;-63
2023/10/01 00:11:49;;;;;;;17.20;12.82;;;;;;;13.59;84.98;102278.69;5097481;28;20439;-63
2023/10/01 00:14:16;;;;;;;15.80;12.38;;;;;;;13.63;85.41;102289.13;5101855;28;20084;-63
2023/10/01 00:16:42;;;;;;;14.63;12.52;;;;;;;13.60;85.54;102293.78;5103342;28;20030;-63
2023/10/01 00:19:10;;;;;;;14.63;12.10;;;;;;;13.62;85.27;102286.53;5102620;28;20028;-63
2023/10/01 00:21:36;;;;;;;12.90;11.38;;;;;;;13.58;85.65;102290.31;5098730;28;20432;-63
2023/10/01 00:24:01;;;;;;;14.45;12.23;;;;;;;13.58;85.54;102291.16;5100599;28;20024;-63
2023/10/01 00:26:27;;;;;;;14.40;12.20;;;;;;;13.54;85.75;102291.41;5100278;28;20056;-63
2023/10/01 00:28:52;;;;;;;20.27;11.65;;;;;;;13.56;85.56;102290.41;5101017;28;20020;-62
2023/10/01 00:31:19;;;;;;;13.20;11.45;;;;;;;13.52;85.90;102295.97;5095257;28;20419;-63
2023/10/01 00:33:48;;;;;;;15.85;11.52;;;;;;;13.49;85.70;102285.44;5097805;28;20474;-63
2023/10/01 00:36:14;;;;;;;12.63;10.98;;;;;;;13.50;85.78;102285.38;5098694;28;20471;-63
2023/10/01 00:38:41;;;;;;;13.77;11.85;;;;;;;13.46;85.81;102285.59;5097670;28;20036;-63
2023/10/01 00:41:08;;;;;;;12.18;10.90;;;;;;;13.54;85.69;102286.06;5099670;28;20103;-63
2023/10/01 00:43:35;;;;;;;13.50;10.68;;;;;;;13.38;85.50;102273.53;5098231;28;20032;-63
2023/10/01 00:46:01;;;;;;;13.93;10.82;;;;;;;13.38;85.69;102276.19;5099056;28;20020;-63
2023/10/01 00:48:27;;;;;;;11.30;9.98;;;;;;;13.45;85.32;102273.19;5097147;28;20028;-63
2023/10/01 00:50:54;;;;;;;12.93;10.75;;;;;;;13.43;86.02;102280.41;5102221;28;20066;-63
2023/10/01 00:53:21;;;;;;;14.00;9.73;;;;;;;13.43;85.46;102267.91;5099745;28;20057;-63
2023/10/01 00:55:48;;;;;;;14.98;10.88;;;;;;;13.23;85.56;102266.22;5130535;27;20034;-63
2023/10/01 00:58:15;;;;;;;13.13;10.10;;;;;;;13.32;85.42;102263.13;5100818;28;20019;-63
2023/10/01 01:00:42;;;;;;;10.88;8.77;;;;;;;13.30;85.49;102254.34;5099408;28;20027;-63
2023/10/01 01:03:09;;;;;;;12.45;9.13;;;;;;;13.30;85.20;102251.66;5103749;28;20072;-63
2023/10/01 01:05:35;;;;;;;12.50;9.43;;;;;;;13.30;85.33;102248.13;5099898;28;20477;-63
2023/10/01 01:08:21;;;;;;;10.27;8.63;;;;;;;13.34;84.93;102249.69;5102353;28;20463;-63
2023/10/01 01:10:48;;;;;;;13.77;9.43;;;;;;;13.30;85.23;102248.13;5098886;28;20030;-63
2023/10/01 01:13:16;;;;;;;11.63;9.38;;;;;;;13.26;85.52;102234.03;5096869;28;20027;-63
2023/10/01 01:15:46;;;;;;;11.75;9.50;;;;;;;13.23;85.42;102239.53;5103795;28;20015;-63
2023/10/01 01:18:14;;;;;;;11.40;10.07;;;;;;;13.21;85.48;102238.75;5085169;28;20023;-63
2023/10/01 01:20:47;;;;;;;10.00;8.65;;;;;;;13.20;86.99;102237.00;5102170;28;20042;-63
2023/10/01 01:23:18;;;;;;;13.20;9.35;;;;;;;13.23;85.98;102234.19;5104445;28;20032;-63
2023/10/01 01:25:44;;;;;;;12.27;9.68;;;;;;;13.25;85.88;102234.13;5098971;28;20046;-63
2023/10/01 01:28:12;;;;;;;14.18;9.55;;;;;;;13.16;85.90;102236.31;5100534;28;20045;-63
2023/10/01 01:30:42;;;;;;;14.90;9.40;;;;;;;13.25;85.76;102236.78;5095026;28;20030;-63
2023/10/01 01:33:13;;;;;;;11.55;9.30;;;;;;;13.19;86.03;102235.28;5095842;28;20154;-63
2023/10/01 01:35:39;;;;;;;13.18;9.93;;;;;;;13.21;85.75;102230.75;5095841;28;20020;-63
2023/10/01 01:38:08;;;;;;;15.48;10.50;;;;;;;13.13;85.98;102230.25;5095187;28;20031;-63
2023/10/01 01:40:35;;;;;;;8.98;5.68;;;;;;;13.33;85.44;102229.28;5097974;28;20034;-63
2023/10/01 01:43:15;;;;;;;13.10;9.85;;;;;;;13.15;85.99;102229.25;5096548;28;20107;-63
2023/10/01 01:45:44;;;;;;;11.05;8.43;;;;;;;13.15;87.09;102223.06;5098013;28;20034;-63
2023/10/01 01:48:30;;;;;;;13.63;10.15;;;;;;;13.18;86.05;102213.06;5098682;28;20100;-63
2023/10/01 01:51:00;;;;;;;12.57;8.90;;;;;;;13.16;86.26;102214.94;5098936;28;20019;-63
2023/10/01 01:53:34;;;;;;;11.70;9.25;;;;;;;13.06;86.65;102211.03;5097053;28;20165;-63
2023/10/01 01:56:04;;;;;;;11.75;9.00;;;;;;;13.09;87.64;102215.34;5094106;28;20024;-63
2023/10/01 01:58:32;;;;;;;9.38;8.18;;;;;;;13.16;86.68;102214.09;5094749;28;20084;-62
2023/10/01 02:01:17;;;;;;;14.15;8.65;;;;;;;13.28;86.38;102228.63;5099842;28;20032;-63
2023/10/01 02:03:46;;;;;;;12.50;8.85;;;;;;;13.16;86.20;102222.09;5096465;28;20136;-63
2023/10/01 02:06:13;;;;;;;10.40;8.30;;;;;;;13.27;86.22;102222.44;5081247;28;20027;-63
2023/10/01 02:08:49;;;;;;;13.10;8.32;;;;;;;13.19;86.12;102219.25;5098150;28;20879;-63
2023/10/01 02:11:22;;;;;;;11.63;8.38;;;;;;;13.18;86.09;102223.75;5097606;28;20510;-63
2023/10/01 02:13:51;;;;;;;13.05;8.55;;;;;;;13.15;86.34;102215.03;5094810;28;20035;-63
2023/10/01 02:21:43;;;;;;;12.88;8.82;;;;;;;13.15;86.79;102202.53;5096255;28;20433;-63
2023/10/01 02:24:22;;;;;;;14.60;8.68;;;;;;;13.09;87.10;102188.63;5098343;28;20035;-63
2023/10/01 02:26:53;;;;;;;13.05;8.95;;;;;;;13.13;86.43;102200.88;5100547;28;20044;-63
2023/10/01 02:29:24;;;;;;;12.43;8.77;;;;;;;13.11;87.03;102198.28;5096080;28;20077;-63
2023/10/01 02:31:55;;;;;;;13.88;8.93;;;;;;;13.15;86.71;102199.88;5100901;28;20027;-63
2023/10/01 02:34:22;;;;;;;13.75;9.02;;;;;;;13.04;87.41;102201.38;5091144;28;20103;-63
2023/10/01 02:36:49;;;;;;;13.32;8.90;;;;;;;13.04;87.17;102196.88;5097938;28;20047;-63
2023/10/01 02:39:27;;;;;;;10.18;8.07;;;;;;;13.04;87.00;102188.88;5093484;28;20032;-63
2023/10/01 02:44:46;;;;;;;12.05;8.35;;;;;;;13.09;86.89;102194.84;5098285;28;20120;-63
2023/10/01 02:47:20;;;;;;;10.10;5.22;;;;;;;13.29;86.28;102208.97;5093077;28;20032;-63
2023/10/01 02:49:58;;;;;;;14.05;8.73;;;;;;;13.12;86.86;102216.06;5094394;28;20107;-63
2023/10/01 02:52:36;;;;;;;10.30;5.10;;;;;;;13.25;86.12;102210.97;5097221;28;20390;-63
2023/10/01 02:55:17;;;;;;;12.32;8.55;;;;;;;13.15;87.21;102217.72;5096304;28;20383;-63
2023/10/01 02:57:43;;;;;;;13.40;8.35;;;;;;;13.10;87.71;102211.72;5103419;28;20078;-63
2023/10/01 03:02:51;;;;;;;12.80;8.88;;;;;;;13.12;87.76;102221.41;5102979;28;20037;-63
2023/10/01 03:05:41;;;;;;;12.50;8.13;;;;;;;12.98;87.56;102207.03;5095599;28;20020;-63
2023/10/01 03:08:11;;;;;;;13.52;8.90;;;;;;;13.01;88.47;102210.41;5105716;28;20857;-63
2023/10/01 03:10:38;;;;;;;9.93;8.07;;;;;;;12.91;88.46;102211.78;5101200;28;20023;-63
2023/10/01 03:13:17;;;;;;;8.60;5.07;;;;;;;13.19;87.80;102206.75;5103309;28;20402;-63
2023/10/01 03:15:44;;;;;;;10.90;8.50;;;;;;;13.02;88.10;102208.59;5127918;27;20020;-63
2023/10/01 03:23:25;;;;;;;12.20;8.77;;;;;;;12.90;88.42;102205.59;5099276;28;20519;-63
2023/10/01 03:25:59;;;;;;;13.75;9.25;;;;;;;12.83;88.90;102206.00;5099330;28;20411;-63
2023/10/01 03:31:28;;;;;;;11.50;8.55;;;;;;;12.85;88.43;102209.44;5100248;28;20131;-63
2023/10/01 03:33:53;;;;;;;11.75;8.65;;;;;;;12.85;88.66;102218.34;5104171;28;20028;-63
2023/10/01 03:36:28;;;;;;;13.45;9.07;;;;;;;12.84;88.80;102213.06;5103051;28;20445;-63
2023/10/01 03:39:25;;;;;;;13.63;9.60;;;;;;;12.83;89.07;102208.69;5095059;28;20046;-63
2023/10/01 03:42:03;;;;;;;13.27;9.77;;;;;;;12.78;88.80;102200.03;5101776;28;20398;-63
2023/10/01 03:44:59;;;;;;;10.88;5.30;;;;;;;12.93;88.31;102204.56;5099900;28;20080;-63
2023/10/01 03:47:27;;;;;;;14.32;9.35;;;;;;;12.69;88.92;102198.69;5104775;28;20023;-63
2023/10/01 03:49:55;;;;;;;14.90;8.88;;;;;;;12.50;89.63;102191.59;5101595;28;20020;-63
2023/10/01 03:52:28;;;;;;;13.43;9.40;;;;;;;12.65;89.53;102197.13;5098653;28;20491;-63
2023/10/01 03:57:22;;;;;;;13.13;9.13;;;;;;;12.57;89.57;102194.81;5098207;27;20111;-63
2023/10/01 03:59:52;;;;;;;14.35;8.88;;;;;;;12.56;89.87;102200.22;5097545;28;20478;-63
2023/10/01 04:02:28;;;;;;;14.43;8.43;;;;;;;12.57;89.85;102199.28;5098377;28;20024;-64
2023/10/01 04:05:02;;;;;;;11.82;8.98;;;;;;;12.58;89.96;102198.34;5097301;28;20490;-63
2023/10/01 04:07:42;;;;;;;13.32;8.57;;;;;;;12.51;89.77;102192.47;5097983;28;20024;-63
2023/10/01 04:10:14;;;;;;;7.45;4.88;;;;;;;12.62;89.50;102184.78;5095160;28;20085;-63
2023/10/01 04:12:50;;;;;;;12.85;8.88;;;;;;;12.48;90.22;102197.94;5100159;28;20032;-63
2023/10/01 04:15:29;;;;;;;13.27;8.95;;;;;;;12.44;90.04;102191.00;5097903;28;20020;-63
2023/10/01 04:18:18;;;;;;;12.88;9.07;;;;;;;12.52;90.10;102194.19;5086093;28;20031;-63
2023/10/01 04:23:35;;;;;;;7.65;4.63;;;;;;;12.67;89.07;102189.88;5096196;28;20043;-63
2023/10/01 04:26:06;;;;;;;13.05;8.98;;;;;;;12.53;89.61;102198.59;5101358;28;20526;-63
2023/10/01 04:28:35;;;;;;;17.15;5.78;;;;;;;12.69;88.93;102196.88;5099217;28;20120;-63
2023/10/01 04:31:08;;;;;;;12.65;9.10;;;;;;;12.54;89.04;102194.13;5098210;28;20077;-63
2023/10/01 04:33:34;;;;;;;13.40;8.82;;;;;;;12.40;89.40;102184.13;5095576;28;20038;-63
2023/10/01 04:36:01;;;;;;;12.38;8.77;;;;;;;12.47;89.46;102190.88;5096140;28;20441;-63
2023/10/01 04:38:29;;;;;;;13.13;9.15;;;;;;;12.42;89.79;102187.59;5100889;28;20027;-63
2023/10/01 04:40:57;;;;;;;8.57;4.95;;;;;;;12.56;89.08;102187.75;5094022;28;20058;-63
2023/10/01 04:43:26;;;;;;;11.13;9.07;;;;;;;12.48;89.82;102180.13;5100477;28;20020;-63
2023/10/01 04:45:52;;;;;;;13.73;9.25;;;;;;;12.39;89.70;102172.59;5128841;27;20423;-63
2023/10/01 04:48:22;;;;;;;13.48;9.70;;;;;;;12.44;89.46;102181.22;5104233;28;20078;-63
2023/10/01 04:50:50;;;;;;;14.75;9.50;;;;;;;12.34;89.78;102184.41;5095185;28;20024;-63
2023/10/01 04:53:20;;;;;;;9.07;5.15;;;;;;;12.50;88.88;102180.94;5103948;28;20026;-63
2023/10/01 04:55:57;;;;;;;15.73;12.13;;;;;;;12.42;89.73;102187.59;5098391;28;20020;-63
2023/10/01 04:58:24;;;;;;;15.90;12.18;;;;;;;12.44;89.88;102194.56;5098900;28;20485;-63
2023/10/01 05:00:50;;;;;;;14.80;11.63;;;;;;;12.37;89.91;102184.25;5100611;28;20028;-63
2023/10/01 05:03:16;;;;;;;16.00;11.50;;;;;;;12.41;89.62;102189.38;5101148;28;20034;-63
2023/10/01 05:05:44;;;;;;;9.38;5.40;;;;;;;12.58;89.05;102191.19;5103519;28;20027;-63
2023/10/01 05:08:13;;;;;;;14.20;11.00;;;;;;;12.42;89.34;102174.25;5133059;27;20050;-63
2023/10/01 05:10:52;;;;;;;12.23;5.82;;;;;;;12.60;89.22;102202.66;5099413;28;20059;-63
2023/10/01 05:13:22;;;;;;;14.10;10.88;;;;;;;12.38;89.95;102194.88;5104633;28;20482;-63
2023/10/01 05:15:57;;;;;;;16.00;11.35;;;;;;;12.53;89.88;102195.94;5099851;28;20019;-63
2023/10/01 05:18:27;;;;;;;16.73;11.95;;;;;;;12.42;89.98;102190.25;5100944;28;20094;-63
2023/10/01 05:20:59;;;;;;;14.98;12.20;;;;;;;12.37;90.32;102190.47;5101807;28;20027;-63
2023/10/01 05:23:26;;;;;;;13.05;5.40;;;;;;;12.46;89.58;102174.00;5100547;28;20194;-63
2023/10/01 05:25:51;;;;;;;15.38;12.02;;;;;;;12.32;90.42;102191.63;5105033;28;20043;-63
2023/10/01 05:28:34;;;;;;;14.30;12.40;;;;;;;12.43;90.68;102195.50;5103267;28;20480;-63
2023/10/01 05:31:08;;;;;;;12.20;5.38;;;;;;;12.55;89.62;102202.03;5095150;28;20534;-63
2023/10/01 05:33:34;;;;;;;15.57;11.38;;;;;;;12.39;90.83;102201.94;5087042;28;20160;-63
2023/10/01 05:36:04;;;;;;;14.07;11.25;;;;;;;12.37;91.02;102203.81;5091177;28;20016;-63
2023/10/01 05:38:33;;;;;;;;;;;;;;;12.56;89.86;102205.56;5099721;28;20027;-63
2023/10/01 05:41:15;;;;;;;13.85;11.55;;;;;;;12.42;91.07;102204.44;5092259;28;19920;-63
2023/10/01 05:43:50;;;;;;;15.32;12.48;;;;;;;12.39;90.65;102201.94;5098281;28;20045;-63
2023/10/01 05:46:17;;;;;;;10.18;5.88;;;;;;;12.47;90.43;102214.88;5091650;28;20020;-63
2023/10/01 05:48:44;;;;;;;9.98;5.47;;;;;;;12.53;90.40;102225.28;5092986;28;20016;-63
2023/10/01 05:51:15;;;;;;;13.80;11.98;;;;;;;12.38;91.32;102220.66;5096101;28;20435;-63
2023/10/01 05:53:43;;;;;;;16.35;12.57;;;;;;;12.33;91.60;102214.72;5089531;28;20031;-63
2023/10/01 05:56:17;;;;;;;16.87;12.57;;;;;;;12.28;92.15;102217.59;5089691;28;20012;-63
2023/10/01 05:58:43;;;;;;;14.63;11.93;;;;;;;12.37;91.83;102202.94;5095992;28;20049;-63
2023/10/01 06:01:21;;;;;;;12.05;6.30;;;;;;;12.42;91.64;102193.78;5088475;28;20056;-63
2023/10/01 06:03:51;;;;;;;15.80;6.65;;;;;;;12.48;91.46;102198.81;5089645;28;20077;-63
2023/10/01 06:06:24;;;;;;;17.15;12.23;;;;;;;12.37;92.34;102202.94;5095149;28;20478;-63
2023/10/01 06:08:58;;;;;;;16.90;11.65;;;;;;;12.42;92.27;102204.44;5093461;28;20474;-63
2023/10/01 06:14:41;;;;;;;16.13;12.80;;;;;;;12.35;91.95;102197.66;5048311;28;20423;-63
2023/10/01 06:17:10;;;;;;;16.15;12.32;;;;;;;12.47;92.48;102209.53;5093385;28;20027;-63
2023/10/01 06:19:38;;;;;;;17.80;13.02;;;;;;;12.46;92.25;102206.00;5097986;28;20027;-63
2023/10/01 06:22:13;;;;;;;11.73;5.80;;;;;;;12.56;92.06;102209.13;5100302;28;20474;-63
2023/10/01 06:24:43;;;;;;;14.50;11.90;;;;;;;12.44;92.57;102201.69;5090479;28;20114;-63
2023/10/01 06:27:12;;;;;;;15.07;13.00;;;;;;;12.55;92.96;102214.50;5093694;28;20048;-63
2023/10/01 06:29:50;;;;;;;18.30;12.48;;;;;;;12.50;93.12;102217.44;5086846;28;20023;-64
2023/10/01 06:32:21;;;;;;;16.27;12.73;;;;;;;12.53;93.33;102217.28;5060962;28;20031;-63
2023/10/01 06:34:49;;;;;;;14.63;13.13;;;;;;;12.62;93.07;102216.81;5088638;28;20020;-63
2023/10/01 06:37:15;;;;;;;16.17;6.72;;;;;;;12.71;93.10;102205.69;5099144;28;20023;-63
2023/10/01 06:39:41;;;;;;;13.85;11.82;;;;;;;12.67;93.32;102212.09;5086244;28;20050;-63
2023/10/01 06:42:20;;;;;;;18.98;12.75;;;;;;;12.70;93.58;102221.75;5099665;28;20032;-63
2023/10/01 06:44:52;;;;;;;19.75;13.15;;;;;;;12.79;93.00;102215.94;5098999;28;20471;-63
2023/10/01 06:47:22;;;;;;;17.13;13.20;;;;;;;12.79;93.50;102209.75;5098426;28;20024;-63
2023/10/01 06:49:57;;;;;;;;;;;;;;;12.93;92.47;102212.59;5095668;28;20368;-63
2023/10/01 06:52:35;;;;;;;15.80;12.00;;;;;;;12.92;93.15;102218.88;5090778;28;19912;-63
2023/10/01 06:55:03;;;;;;;17.00;13.38;;;;;;;13.00;93.35;102206.00;5089133;28;20035;-63
2023/10/01 06:57:33;;;;;;;12.52;6.93;;;;;;;12.98;93.02;102189.19;5100845;28;20028;-63
2023/10/01 07:00:01;;;;;;;15.57;12.65;;;;;;;13.04;93.12;102210.22;5094372;28;20027;-63
2023/10/01 07:02:27;;;;;;;10.90;6.30;;;;;;;13.12;93.19;102204.50;5094454;28;20501;-63
2023/10/01 07:04:56;;;;;;;16.23;7.25;;;;;;;13.15;93.25;102205.22;5093381;28;20032;-63
2023/10/01 07:07:24;;;;;;;17.63;11.40;;;;;;;13.11;93.49;102195.59;5088986;28;20076;-63
2023/10/01 07:09:49;;;;;;;17.92;12.68;;;;;;;13.11;93.88;102187.59;5087666;28;20040;-63
2023/10/01 07:12:17;;;;;;;9.95;5.95;;;;;;;13.22;93.72;102188.84;5095201;28;20055;-63
2023/10/01 07:14:43;;;;;;;15.10;8.25;;;;;;;13.29;93.63;102199.16;5107108;28;20080;-63
2023/10/01 07:17:18;;;;;;;17.52;12.57;;;;;;;13.28;93.15;102194.75;5101423;28;20024;-63
2023/10/01 07:19:45;;;;;;;15.75;12.07;;;;;;;13.39;93.36;102202.22;5098632;28;20466;-64
2023/10/01 07:22:15;;;;;;;17.50;13.23;;;;;;;13.44;93.21;102205.50;5108143;28;20051;-63
2023/10/01 07:24:41;;;;;;;16.08;12.30;;;;;;;13.50;93.23;102217.66;5092342;28;20114;-63
2023/10/01 07:27:10;;;;;;;13.25;6.15;;;;;;;13.56;93.41;102218.22;5095105;28;20441;-63
2023/10/01 07:29:41;;;;;;;15.55;12.38;;;;;;;13.58;92.89;102216.31;5089475;28;20670;-63
2023/10/01 07:32:12;;;;;;;18.30;13.05;;;;;;;13.71;92.51;102210.31;5116731;28;20363;-63
2023/10/01 07:34:45;;;;;;;17.23;6.45;;;;;;;13.73;92.98;102214.63;5085946;28;20513;-63
2023/10/01 07:37:11;;;;;;;18.27;12.48;;;;;;;13.84;92.95;102217.56;5087571;28;20034;-63
2023/10/01 07:39:37;;;;;;;17.70;13.73;;;;;;;13.91;92.15;102219.91;5088005;28;20036;-63
2023/10/01 07:42:04;;;;;;;18.33;13.15;;;;;;;13.98;92.30;102219.50;5090008;28;20020;-63
2023/10/01 07:44:35;;;;;;;17.98;13.45;;;;;;;14.07;92.05;102221.66;5107477;28;20031;-63
2023/10/01 07:47:02;;;;;;;18.17;13.07;;;;;;;14.12;92.09;102229.44;5091825;28;20028;-63
2023/10/01 07:49:46;;;;;;;18.02;12.90;;;;;;;14.19;91.95;102220.09;5099793;28;20106;-63
2023/10/01 07:52:18;;;;;;;11.40;5.80;;;;;;;14.27;91.43;102239.28;5094224;28;20485;-63
2023/10/01 07:54:47;;;;;;;20.60;12.82;;;;;;;14.39;91.11;102229.69;5101424;28;20378;-63
2023/10/01 07:57:13;;;;;;;13.27;6.95;;;;;;;14.39;90.48;102221.66;5107652;28;20109;-63
2023/10/01 07:59:43;;;;;;;17.85;12.50;;;;;;;14.51;90.57;102230.81;5077356;28;20031;-63
2023/10/01 08:02:21;;;;;;;16.13;12.13;;;;;;;14.56;90.81;102219.84;5093599;28;20031;-63
2023/10/01 08:07:17;;;;;;;19.55;13.35;;;;;;;14.81;89.84;102228.19;5109476;28;20085;-63
2023/10/01 08:09:51;;;;;;;19.23;14.10;;;;;;;14.87;89.49;102229.63;5075149;28;20141;-63
2023/10/01 08:12:19;;;;;;;17.92;13.52;;;;;;;14.96;89.24;102219.22;5094172;28;20116;-63
2023/10/01 08:15:15;;;;;;;17.02;12.90;;;;;;;15.10;88.60;102213.06;5101377;28;20046;-63
2023/10/01 08:17:34;;;;;;;18.10;12.60;;;;;;;15.32;88.77;102217.97;5095044;28;20110;-62
2023/10/01 08:20:14;;;;;;;9.73;5.65;;;;;;;15.42;88.37;102220.97;5098316;28;20375;-62
2023/10/01 08:25:25;;;;;;;20.10;12.27;;;;;;;15.87;86.56;102232.47;5090542;28;20101;-63
2023/10/01 08:30:49;;;;;;;18.52;12.50;;;;;;;16.15;85.35;102236.06;5088079;28;20088;-63
2023/10/01 08:33:33;;;;;;;16.52;11.48;;;;;;;16.24;86.51;102241.75;5101715;28;20028;-64
2023/10/01 08:36:14;;;;;;;19.00;12.02;;;;;;;16.22;84.54;102237.41;5090051;28;20028;-64
2023/10/01 08:39:19;;;;;;;19.23;11.80;;;;;;;16.32;85.54;102250.16;5096909;28;20062;-64
2023/10/01 08:41:50;;;;;;;15.82;11.57;;;;;;;16.35;84.67;102249.06;5102677;28;20070;-63
2023/10/01 08:44:30;;;;;;;21.13;12.63;;;;;;;16.35;84.87;102249.97;5111521;28;20533;-64
2023/10/01 08:47:21;;;;;;;23.27;12.55;;;;;;;16.34;84.86;102242.84;5095741;28;20063;-64
2023/10/01 08:49:46;;;;;;;17.83;12.05;;;;;;;16.31;85.26;102243.03;5088960;28;20036;-64
2023/10/01 08:52:25;;;;;;;19.60;13.23;;;;;;;16.33;85.41;102240.28;5095890;28;20046;-63
2023/10/01 08:54:53;;;;;;;16.35;12.40;;;;;;;16.46;84.52;102248.38;5094268;28;20198;-63
2023/10/01 08:57:36;;;;;;;17.92;12.45;;;;;;;16.58;84.87;102243.06;5106093;28;20026;-63
2023/10/01 09:00:14;;;;;;;18.63;13.15;;;;;;;16.73;84.54;102245.69;5097296;28;20035;-63
2023/10/01 09:02:39;;;;;;;18.77;12.45;;;;;;;16.85;85.01;102249.41;5097834;28;20032;-63
2023/10/01 09:05:08;;;;;;;17.52;12.65;;;;;;;16.94;83.79;102246.09;5110317;28;20026;-63
2023/10/01 09:07:50;;;;;;;17.48;11.98;;;;;;;17.11;83.69;102253.88;5092682;28;20514;-64
2023/10/01 09:10:19;;;;;;;21.27;12.60;;;;;;;17.13;82.37;102245.72;5099254;28;20386;-64
2023/10/01 09:12:50;;;;;;;20.20;13.25;;;;;;;17.28;82.14;102243.81;5099680;28;20027;-64
2023/10/01 09:15:29;;;;;;;19.80;12.70;;;;;;;17.39;82.87;102242.09;5085533;28;20032;-64
2023/10/01 09:18:10;;;;;;;17.63;11.77;;;;;;;17.58;81.01;102248.88;5095625;28;20024;-64
2023/10/01 09:20:36;;;;;;;17.20;11.57;;;;;;;17.69;82.91;102236.38;5090001;28;20074;-64
2023/10/01 09:23:01;;;;;;;15.80;11.55;;;;;;;17.71;80.83;102228.22;5110587;28;20470;-63
2023/10/01 09:25:27;;;;;;;17.20;11.82;;;;;;;17.83;80.07;102235.44;5103701;28;20032;-63
2023/10/01 09:28:19;;;;;;;16.30;11.48;;;;;;;17.91;80.22;102230.38;5095127;28;20406;-64
2023/10/01 09:31:26;;;;;;;16.38;11.23;;;;;;;18.02;80.19;102229.59;5093038;28;20020;-64
2023/10/01 09:33:48;;;;;;;17.17;11.38;;;;;;;18.02;79.33;102204.50;5091465;28;20375;-64
2023/10/01 09:36:53;;;;;;;19.00;12.43;;;;;;;18.24;79.40;102222.66;5087032;28;20031;-64
2023/10/01 09:39:22;;;;;;;16.38;11.38;;;;;;;18.18;78.67;102213.19;5050837;28;20434;-63
2023/10/01 09:41:51;;;;;;;17.48;11.23;;;;;;;18.34;79.58;102220.97;5082573;28;20047;-64
2023/10/01 09:44:18;;;;;;;15.43;10.82;;;;;;;18.42;78.40;102212.34;5095034;28;20118;-64
2023/10/01 09:46:44;;;;;;;19.17;11.50;;;;;;;18.57;79.01;102216.59;5103549;28;20019;-64
2023/10/01 09:49:21;;;;;;;15.98;10.98;;;;;;;18.69;79.19;102217.50;5090635;28;20059;-64
2023/10/01 09:51:52;;;;;;;19.17;11.88;;;;;;;18.97;77.44;102222.53;5089570;28;20024;-64
2023/10/01 09:54:28;;;;;;;20.20;11.32;;;;;;;19.00;77.23;102221.41;5090601;28;20445;-64
2023/10/01 09:56:56;;;;;;;17.90;11.23;;;;;;;19.07;76.73;102222.69;5105214;28;20382;-64
2023/10/01 09:59:26;;;;;;;17.38;11.20;;;;;;;19.08;76.40;102221.69;5096863;28;20077;-64
2023/10/01 10:02:02;;;;;;;18.30;11.38;;;;;;;19.27;75.91;102216.59;5096156;28;20416;-64
2023/10/01 10:04:29;;;;;;;17.60;11.35;;;;;;;19.57;76.21;102208.91;5110784;28;20450;-64
2023/10/01 10:07:04;;;;;;;15.63;10.35;;;;;;;19.69;75.32;102213.34;5110426;28;20063;-64
2023/10/01 10:09:32;;;;;;;15.65;10.13;;;;;;;20.01;76.34;102218.88;5102064;28;20022;-64
2023/10/01 10:12:01;;;;;;;17.85;10.95;;;;;;;19.93;73.09;102213.22;5092956;28;20024;-64
2023/10/01 10:14:33;;;;;;;19.52;11.05;;;;;;;20.06;72.07;102223.88;5092928;28;20386;-64
2023/10/01 10:17:18;;;;;;;18.65;11.10;;;;;;;20.28;71.91;102221.16;5112158;28;20371;-64
2023/10/01 10:20:15;;;;;;;17.15;10.98;;;;;;;20.45;72.92;102225.16;5112311;28;20027;-65
2023/10/01 10:23:21;;;;;;;16.48;9.95;;;;;;;20.79;72.33;102216.94;5110652;28;20038;-64
2023/10/01 10:25:47;;;;;;;19.27;10.38;;;;;;;20.89;69.25;102206.22;5123693;27;20408;-65
2023/10/01 10:28:29;;;;;;;19.80;11.07;;;;;;;20.99;70.12;102205.28;5093517;28;20543;-65
2023/10/01 10:31:29;;;;;;;18.50;10.75;;;;;;;21.38;71.58;102200.13;5124650;27;20112;-64
2023/10/01 10:34:26;;;;;;;14.88;9.88;;;;;;;21.55;68.59;102193.25;5092838;28;20027;-64
2023/10/01 10:36:54;;;;;;;16.67;9.75;;;;;;;21.64;66.19;102199.69;5088945;28;20048;-64
2023/10/01 10:39:49;;;;;;;15.68;9.77;;;;;;;21.92;67.28;102198.09;5086170;28;20482;-64
2023/10/01 10:42:30;;;;;;;16.20;10.15;;;;;;;22.13;66.53;102196.16;5080067;28;20062;-64
2023/10/01 10:45:19;;;;;;;14.95;9.40;;;;;;;22.66;65.54;102189.53;5091686;28;20046;-65
2023/10/01 10:48:01;;;;;;;17.00;10.10;;;;;;;22.92;64.04;102194.38;5099646;28;20023;-64
2023/10/01 10:50:56;;;;;;;14.75;9.43;;;;;;;23.48;64.52;102199.00;5101102;28;20024;-64
2023/10/01 10:53:23;;;;;;;14.70;9.52;;;;;;;23.77;61.09;102194.31;5069005;28;20048;-64
2023/10/01 10:56:13;;;;;;;17.98;10.40;;;;;;;24.18;60.79;102192.09;5077660;28;20012;-65
2023/10/01 10:58:48;;;;;;;17.45;9.73;;;;;;;24.39;58.56;102197.25;5098256;28;20050;-65
2023/10/01 11:01:18;;;;;;;15.63;8.98;;;;;;;24.97;56.37;102195.03;5094791;28;20031;-64
2023/10/01 11:04:00;;;;;;;13.20;9.25;;;;;;;25.32;58.31;102197.69;5090238;28;20111;-64
2023/10/01 11:06:39;;;;;;;16.98;9.88;;;;;;;25.34;55.46;102190.22;5081964;28;20031;-65
2023/10/01 11:09:26;;;;;;;17.52;9.57;;;;;;;25.76;52.43;102203.03;5089044;28;20027;-64
2023/10/01 11:11:52;;;;;;;14.77;9.50;;;;;;;25.82;51.42;102201.56;5103661;28;20531;-64
2023/10/01 11:14:19;;;;;;;16.80;10.50;;;;;;;26.07;50.33;102199.81;5090091;28;20158;-65
2023/10/01 11:16:49;;;;;;;16.42;9.93;;;;;;;26.26;50.08;102196.75;5090709;28;20035;-64
2023/10/01 11:19:16;;;;;;;15.25;9.43;;;;;;;26.79;49.26;102186.44;5098254;28;20027;-65
2023/10/01 11:22:06;;;;;;;16.35;9.35;;;;;;;27.36;48.29;102193.75;5113680;28;20031;-65
2023/10/01 11:24:40;;;;;;;16.92;9.90;;;;;;;27.19;47.41;102179.28;5112909;27;20028;-65
2023/10/01 11:27:18;;;;;;;15.43;9.27;;;;;;;27.13;47.66;102177.22;5096732;28;20084;-65
2023/10/01 11:30:12;;;;;;;13.82;9.38;;;;;;;27.94;48.79;102176.13;5098652;28;20023;-65
2023/10/01 11:35:32;;;;;;;16.98;9.60;;;;;;;28.73;44.67;102163.09;5085939;28;20056;-65
2023/10/01 11:38:14;;;;;;;15.73;9.32;;;;;;;28.97;44.65;102163.91;5094566;28;20448;-65
2023/10/01 11:43:35;;;;;;;13.55;8.80;;;;;;;29.34;41.13;102162.19;5094921;28;20043;-65
2023/10/01 11:46:24;;;;;;;15.85;9.60;;;;;;;29.65;43.25;102151.91;5101782;28;20039;-65
2023/10/01 11:48:57;;;;;;;13.93;8.68;;;;;;;29.35;41.13;102162.00;5093548;28;20367;-65
2023/10/01 11:54:20;;;;;;;16.58;9.52;;;;;;;30.40;38.92;102157.19;5110449;28;20035;-65
2023/10/01 11:57:06;;;;;;;17.15;9.48;;;;;;;30.45;38.67;102154.72;5113901;28;20158;-65
2023/10/01 11:59:32;;;;;;;15.00;9.68;;;;;;;30.85;37.62;102142.19;5093345;28;20085;-64
2023/10/01 12:02:18;;;;;;;12.63;9.07;;;;;;;30.96;37.57;102152.63;5093084;28;20023;-65
2023/10/01 12:04:43;;;;;;;15.52;9.65;;;;;;;30.84;37.18;102134.16;5094456;28;20402;-64
2023/10/01 12:07:16;;;;;;;14.85;9.32;;;;;;;30.49;36.90;102132.16;5096077;28;20058;-65
2023/10/01 12:09:49;;;;;;;15.60;10.15;;;;;;;30.33;37.79;102137.94;5114593;27;20106;-65
2023/10/01 12:12:21;;;;;;;14.50;10.05;;;;;;;30.34;39.39;102123.13;5114798;28;20391;-64
2023/10/01 12:14:53;;;;;;;14.75;9.93;;;;;;;30.88;36.76;102124.47;5114662;28;20312;-66
2023/10/01 12:17:23;;;;;;;17.58;10.80;;;;;;;30.75;36.87;102131.53;5106188;28;20104;-65
2023/10/01 12:19:59;;;;;;;14.48;10.02;;;;;;;30.98;37.63;102113.97;5092812;28;20032;-65
2023/10/01 12:22:29;;;;;;;19.05;10.35;;;;;;;31.57;36.73;102118.13;5094038;28;20088;-64
2023/10/01 12:25:00;;;;;;;16.27;10.30;;;;;;;32.25;34.66;102112.63;5093774;28;20040;-64